Terminal Aerodrome Forecast
Issued by NWS

Home | Current Version | Previous Version | Text Only | Print | Product List | Glossary On
Versions: 1 2 3 4 5 6 7 8 9 10 11 12 13 14 15 16 17 18 19
197
FTUS45 KABQ 262320
TAFTCC
TAF
KTCC 262320Z 2700/2724 16011KT P6SM FEW050
      TEMPO 2704/2706 32020G35KT 5SM -TSRA OVC030CB
     FM270600 21009KT P6SM BKN080
     FM271700 20014G22KT P6SM SCT070
     FM272100 21020G32KT P6SM SCT080=

USA.gov is the U.S. government's official web portal to all federal, state and local government web resources and services.